sensor_id;sensor_type;location;lat;lon;timestamp;temperature;humidity
35240;DHT22;21376;50.954;4.716;2024-03-02T00:00:24;6.90;99.90
35240;DHT22;21376;50.954;4.716;2024-03-02T00:02:51;7.00;99.90
35240;DHT22;21376;50.954;4.716;2024-03-02T00:05:23;6.90;99.90
35240;DHT22;21376;50.954;4.716;2024-03-02T00:07:54;6.80;99.90
35240;DHT22;21376;50.954;4.716;2024-03-02T00:10:30;6.80;99.90
35240;DHT22;21376;50.954;4.716;2024-03-02T00:13:04;7.00;99.90
35240;DHT22;21376;50.954;4.716;2024-03-02T01:10:36;6.60;99.90
35240;DHT22;21376;50.954;4.716;2024-03-02T01:13:03;6.60;99.90
35240;DHT22;21376;50.954;4.716;2024-03-02T01:15:29;6.60;99.90
35240;DHT22;21376;50.954;4.716;2024-03-02T01:17:55;6.60;99.90
35240;DHT22;21376;50.954;4.716;2024-03-02T01:20:21;6.50;99.90
35240;DHT22;21376;50.954;4.716;2024-03-02T01:22:53;6.50;99.90
35240;DHT22;21376;50.954;4.716;2024-03-02T01:25:20;6.50;99.90
35240;DHT22;21376;50.954;4.716;2024-03-02T01:31:14;6.70;99.90
35240;DHT22;21376;50.954;4.716;2024-03-02T01:33:40;6.60;99.90
35240;DHT22;21376;50.954;4.716;2024-03-02T01:39:40;6.60;99.90
35240;DHT22;21376;50.954;4.716;2024-03-02T01:42:09;6.60;99.90
35240;DHT22;21376;50.954;4.716;2024-03-02T01:44:40;6.60;99.90
35240;DHT22;21376;50.954;4.716;2024-03-02T01:47:09;6.60;99.90
35240;DHT22;21376;50.954;4.716;2024-03-02T01:49:41;6.60;99.90
35240;DHT22;21376;50.954;4.716;2024-03-02T01:52:10;6.60;99.90
35240;DHT22;21376;50.954;4.716;2024-03-02T01:54:39;6.60;99.90
35240;DHT22;21376;50.954;4.716;2024-03-02T01:57:08;6.60;99.90
35240;DHT22;21376;50.954;4.716;2024-03-02T01:59:37;6.60;99.90
35240;DHT22;21376;50.954;4.716;2024-03-02T02:02:05;6.60;99.90
35240;DHT22;21376;50.954;4.716;2024-03-02T02:04:35;6.50;99.90
35240;DHT22;21376;50.954;4.716;2024-03-02T02:07:04;6.40;99.90
35240;DHT22;21376;50.954;4.716;2024-03-02T02:09:33;6.50;99.90
35240;DHT22;21376;50.954;4.716;2024-03-02T02:12:00;6.50;99.90
35240;DHT22;21376;50.954;4.716;2024-03-02T02:14:29;6.50;99.90
35240;DHT22;21376;50.954;4.716;2024-03-02T02:17:20;6.60;99.90
35240;DHT22;21376;50.954;4.716;2024-03-02T02:19:47;6.70;99.90
35240;DHT22;21376;50.954;4.716;2024-03-02T02:22:16;6.70;99.90
35240;DHT22;21376;50.954;4.716;2024-03-02T02:24:45;6.80;99.90
35240;DHT22;21376;50.954;4.716;2024-03-02T02:27:17;6.90;99.90
35240;DHT22;21376;50.954;4.716;2024-03-02T02:29:46;6.90;99.90
35240;DHT22;21376;50.954;4.716;2024-03-02T02:32:16;7.00;99.90
35240;DHT22;21376;50.954;4.716;2024-03-02T02:34:45;7.00;99.90
35240;DHT22;21376;50.954;4.716;2024-03-02T02:37:13;7.00;99.90
35240;DHT22;21376;50.954;4.716;2024-03-02T02:39:45;6.90;99.90
35240;DHT22;21376;50.954;4.716;2024-03-02T02:42:15;7.00;99.90
35240;DHT22;21376;50.954;4.716;2024-03-02T02:44:40;6.90;99.90
35240;DHT22;21376;50.954;4.716;2024-03-02T02:47:08;6.90;99.90
35240;DHT22;21376;50.954;4.716;2024-03-02T02:49:37;6.80;99.90
35240;DHT22;21376;50.954;4.716;2024-03-02T02:52:06;6.90;99.90
35240;DHT22;21376;50.954;4.716;2024-03-02T02:54:52;6.80;99.90
35240;DHT22;21376;50.954;4.716;2024-03-02T02:57:42;7.00;99.90
35240;DHT22;21376;50.954;4.716;2024-03-02T03:00:13;6.90;99.90
35240;DHT22;21376;50.954;4.716;2024-03-02T03:02:47;6.90;99.90
35240;DHT22;21376;50.954;4.716;2024-03-02T03:05:18;6.70;99.90
35240;DHT22;21376;50.954;4.716;2024-03-02T03:07:45;6.60;99.90
35240;DHT22;21376;50.954;4.716;2024-03-02T03:10:14;6.70;99.90
35240;DHT22;21376;50.954;4.716;2024-03-02T03:12:43;6.60;99.90
35240;DHT22;21376;50.954;4.716;2024-03-02T03:18:21;6.50;99.90
35240;DHT22;21376;50.954;4.716;2024-03-02T03:20:53;6.40;99.90
35240;DHT22;21376;50.954;4.716;2024-03-02T03:23:21;6.30;99.90
35240;DHT22;21376;50.954;4.716;2024-03-02T03:25:48;6.20;99.90
35240;DHT22;21376;50.954;4.716;2024-03-02T03:28:17;6.20;99.90
35240;DHT22;21376;50.954;4.716;2024-03-02T03:30:46;6.20;99.90
35240;DHT22;21376;50.954;4.716;2024-03-02T03:33:15;6.20;99.90
35240;DHT22;21376;50.954;4.716;2024-03-02T03:35:44;6.10;99.90
35240;DHT22;21376;50.954;4.716;2024-03-02T03:38:12;6.30;99.90
35240;DHT22;21376;50.954;4.716;2024-03-02T03:40:39;5.90;99.90
35240;DHT22;21376;50.954;4.716;2024-03-02T03:43:08;5.90;99.90
35240;DHT22;21376;50.954;4.716;2024-03-02T03:45:54;6.00;99.90
35240;DHT22;21376;50.954;4.716;2024-03-02T03:48:23;5.90;99.90
35240;DHT22;21376;50.954;4.716;2024-03-02T03:50:53;5.90;99.90
35240;DHT22;21376;50.954;4.716;2024-03-02T03:53:22;5.90;99.90
35240;DHT22;21376;50.954;4.716;2024-03-02T03:55:51;5.90;99.90
35240;DHT22;21376;50.954;4.716;2024-03-02T03:58:24;5.90;99.90
35240;DHT22;21376;50.954;4.716;2024-03-02T04:00:53;5.60;99.90
35240;DHT22;21376;50.954;4.716;2024-03-02T04:03:22;5.60;99.90
35240;DHT22;21376;50.954;4.716;2024-03-02T04:05:51;5.60;99.90
35240;DHT22;21376;50.954;4.716;2024-03-02T04:08:19;5.60;99.90
35240;DHT22;21376;50.954;4.716;2024-03-02T04:10:47;5.70;99.90
35240;DHT22;21376;50.954;4.716;2024-03-02T04:13:16;5.70;99.90
35240;DHT22;21376;50.954;4.716;2024-03-02T04:15:48;5.70;99.90
35240;DHT22;21376;50.954;4.716;2024-03-02T04:18:17;5.90;99.90
35240;DHT22;21376;50.954;4.716;2024-03-02T04:20:46;5.90;99.90
35240;DHT22;21376;50.954;4.716;2024-03-02T04:23:15;5.90;99.90
35240;DHT22;21376;50.954;4.716;2024-03-02T04:25:45;6.10;99.90
35240;DHT22;21376;50.954;4.716;2024-03-02T04:28:17;5.80;99.90
35240;DHT22;21376;50.954;4.716;2024-03-02T04:30:43;5.70;99.90
35240;DHT22;21376;50.954;4.716;2024-03-02T04:33:11;5.70;99.90
35240;DHT22;21376;50.954;4.716;2024-03-02T04:35:40;5.60;99.90
35240;DHT22;21376;50.954;4.716;2024-03-02T04:38:08;5.60;99.90
35240;DHT22;21376;50.954;4.716;2024-03-02T04:40:36;5.50;99.90
35240;DHT22;21376;50.954;4.716;2024-03-02T04:43:01;5.50;99.90
35240;DHT22;21376;50.954;4.716;2024-03-02T04:45:31;5.50;99.90
35240;DHT22;21376;50.954;4.716;2024-03-02T04:47:57;5.50;99.90
35240;DHT22;21376;50.954;4.716;2024-03-02T04:50:37;5.40;99.90
35240;DHT22;21376;50.954;4.716;2024-03-02T04:53:06;5.30;99.90
35240;DHT22;21376;50.954;4.716;2024-03-02T04:55:35;5.20;99.90
35240;DHT22;21376;50.954;4.716;2024-03-02T04:58:24;5.40;99.90
35240;DHT22;21376;50.954;4.716;2024-03-02T05:00:53;5.20;99.90
35240;DHT22;21376;50.954;4.716;2024-03-02T05:03:18;5.40;99.90
35240;DHT22;21376;50.954;4.716;2024-03-02T05:05:44;5.30;99.90
35240;DHT22;21376;50.954;4.716;2024-03-02T05:08:34;5.40;99.90
35240;DHT22;21376;50.954;4.716;2024-03-02T05:14:36;5.30;99.90
35240;DHT22;21376;50.954;4.716;2024-03-02T05:17:10;5.50;99.90
35240;DHT22;21376;50.954;4.716;2024-03-02T05:19:39;5.40;99.90
35240;DHT22;21376;50.954;4.716;2024-03-02T05:22:11;5.40;99.90
35240;DHT22;21376;50.954;4.716;2024-03-02T05:24:36;5.30;99.90
35240;DHT22;21376;50.954;4.716;2024-03-02T05:27:18;5.20;99.90
35240;DHT22;21376;50.954;4.716;2024-03-02T05:29:46;5.20;99.90
35240;DHT22;21376;50.954;4.716;2024-03-02T05:32:15;5.40;99.90
35240;DHT22;21376;50.954;4.716;2024-03-02T05:34:42;5.40;99.90
35240;DHT22;21376;50.954;4.716;2024-03-02T05:37:20;5.50;99.90
35240;DHT22;21376;50.954;4.716;2024-03-02T05:39:46;5.50;99.90
35240;DHT22;21376;50.954;4.716;2024-03-02T05:42:14;5.50;99.90
35240;DHT22;21376;50.954;4.716;2024-03-02T05:44:43;5.50;99.90
35240;DHT22;21376;50.954;4.716;2024-03-02T05:47:12;5.40;99.90
35240;DHT22;21376;50.954;4.716;2024-03-02T05:49:41;5.40;99.90
35240;DHT22;21376;50.954;4.716;2024-03-02T05:52:09;5.40;99.90
35240;DHT22;21376;50.954;4.716;2024-03-02T05:54:40;5.40;99.90
35240;DHT22;21376;50.954;4.716;2024-03-02T05:57:09;5.40;99.90
35240;DHT22;21376;50.954;4.716;2024-03-02T06:00:15;5.40;99.90
35240;DHT22;21376;50.954;4.716;2024-03-02T06:02:44;5.30;99.90
35240;DHT22;21376;50.954;4.716;2024-03-02T06:05:14;5.50;99.90
35240;DHT22;21376;50.954;4.716;2024-03-02T06:07:43;5.60;99.90
35240;DHT22;21376;50.954;4.716;2024-03-02T06:10:12;5.50;99.90
35240;DHT22;21376;50.954;4.716;2024-03-02T06:12:44;5.60;99.90
35240;DHT22;21376;50.954;4.716;2024-03-02T06:15:41;5.70;99.90
35240;DHT22;21376;50.954;4.716;2024-03-02T06:18:08;5.40;99.90
35240;DHT22;21376;50.954;4.716;2024-03-02T06:20:37;5.50;99.90
35240;DHT22;21376;50.954;4.716;2024-03-02T06:23:08;5.50;99.90
35240;DHT22;21376;50.954;4.716;2024-03-02T06:25:37;5.40;99.90
35240;DHT22;21376;50.954;4.716;2024-03-02T06:28:06;5.40;99.90
35240;DHT22;21376;50.954;4.716;2024-03-02T06:30:38;5.40;99.90
35240;DHT22;21376;50.954;4.716;2024-03-02T06:36:36;5.40;99.90
35240;DHT22;21376;50.954;4.716;2024-03-02T06:39:05;5.40;99.90
35240;DHT22;21376;50.954;4.716;2024-03-02T06:41:34;5.40;99.90
35240;DHT22;21376;50.954;4.716;2024-03-02T06:44:01;5.50;99.90
35240;DHT22;21376;50.954;4.716;2024-03-02T06:46:30;5.60;99.90
35240;DHT22;21376;50.954;4.716;2024-03-02T06:48:59;5.70;99.90
35240;DHT22;21376;50.954;4.716;2024-03-02T06:51:31;5.60;99.90
35240;DHT22;21376;50.954;4.716;2024-03-02T06:54:14;5.50;99.90
35240;DHT22;21376;50.954;4.716;2024-03-02T06:56:43;5.70;99.90
35240;DHT22;21376;50.954;4.716;2024-03-02T06:59:25;5.70;99.90
35240;DHT22;21376;50.954;4.716;2024-03-02T07:01:51;5.60;99.90
35240;DHT22;21376;50.954;4.716;2024-03-02T07:04:53;5.60;99.90
35240;DHT22;21376;50.954;4.716;2024-03-02T07:07:21;5.60;99.90
35240;DHT22;21376;50.954;4.716;2024-03-02T07:09:54;5.90;99.90
35240;DHT22;21376;50.954;4.716;2024-03-02T07:12:31;5.90;99.90
35240;DHT22;21376;50.954;4.716;2024-03-02T07:14:58;5.90;99.90
35240;DHT22;21376;50.954;4.716;2024-03-02T07:17:31;5.90;99.90
35240;DHT22;21376;50.954;4.716;2024-03-02T07:20:01;7.00;99.90
35240;DHT22;21376;50.954;4.716;2024-03-02T07:22:30;8.30;99.90
35240;DHT22;21376;50.954;4.716;2024-03-02T07:24:59;9.80;99.90
35240;DHT22;21376;50.954;4.716;2024-03-02T07:27:28;10.60;99.90
35240;DHT22;21376;50.954;4.716;2024-03-02T07:29:57;11.30;99.90
35240;DHT22;21376;50.954;4.716;2024-03-02T07:32:26;12.00;99.90
35240;DHT22;21376;50.954;4.716;2024-03-02T07:34:54;11.60;99.90
35240;DHT22;21376;50.954;4.716;2024-03-02T07:37:23;10.90;99.90
35240;DHT22;21376;50.954;4.716;2024-03-02T07:39:52;11.20;99.90
35240;DHT22;21376;50.954;4.716;2024-03-02T07:47:57;10.70;99.90
35240;DHT22;21376;50.954;4.716;2024-03-02T07:50:23;11.90;99.90
35240;DHT22;21376;50.954;4.716;2024-03-02T07:52:52;12.40;99.90
35240;DHT22;21376;50.954;4.716;2024-03-02T07:58:56;13.20;99.90
35240;DHT22;21376;50.954;4.716;2024-03-02T08:01:32;13.60;99.90
35240;DHT22;21376;50.954;4.716;2024-03-02T08:03:59;15.10;99.90
35240;DHT22;21376;50.954;4.716;2024-03-02T08:07:00;15.20;99.90
35240;DHT22;21376;50.954;4.716;2024-03-02T08:09:31;15.40;99.90
35240;DHT22;21376;50.954;4.716;2024-03-02T08:12:00;16.80;99.90
35240;DHT22;21376;50.954;4.716;2024-03-02T08:14:29;17.00;99.90
35240;DHT22;21376;50.954;4.716;2024-03-02T08:16:58;16.80;99.90
35240;DHT22;21376;50.954;4.716;2024-03-02T08:22:15;15.60;99.90
35240;DHT22;21376;50.954;4.716;2024-03-02T08:24:44;14.80;99.90
35240;DHT22;21376;50.954;4.716;2024-03-02T08:27:13;14.30;99.90
35240;DHT22;21376;50.954;4.716;2024-03-02T08:29:40;14.70;99.90
35240;DHT22;21376;50.954;4.716;2024-03-02T08:32:08;14.60;99.90
35240;DHT22;21376;50.954;4.716;2024-03-02T08:34:37;14.50;99.90
35240;DHT22;21376;50.954;4.716;2024-03-02T08:37:10;14.40;99.90
35240;DHT22;21376;50.954;4.716;2024-03-02T08:39:39;15.70;99.90
35240;DHT22;21376;50.954;4.716;2024-03-02T08:42:11;16.10;99.90
35240;DHT22;21376;50.954;4.716;2024-03-02T10:17:14;16.10;99.90
35240;DHT22;21376;50.954;4.716;2024-03-02T10:19:43;16.30;99.90
35240;DHT22;21376;50.954;4.716;2024-03-02T10:22:12;15.60;99.90
35240;DHT22;21376;50.954;4.716;2024-03-02T10:24:43;14.70;99.90
35240;DHT22;21376;50.954;4.716;2024-03-02T10:27:27;13.60;99.90
35240;DHT22;21376;50.954;4.716;2024-03-02T10:29:56;14.60;99.90
35240;DHT22;21376;50.954;4.716;2024-03-02T10:32:24;15.60;99.90
35240;DHT22;21376;50.954;4.716;2024-03-02T10:34:52;17.00;99.90
35240;DHT22;21376;50.954;4.716;2024-03-02T10:37:21;16.60;99.90
35240;DHT22;21376;50.954;4.716;2024-03-02T10:39:49;17.10;99.90
35240;DHT22;21376;50.954;4.716;2024-03-02T10:42:18;16.60;99.90
35240;DHT22;21376;50.954;4.716;2024-03-02T10:44:48;16.60;99.90
35240;DHT22;21376;50.954;4.716;2024-03-02T10:47:18;16.60;99.90
35240;DHT22;21376;50.954;4.716;2024-03-02T10:49:47;17.30;99.90
35240;DHT22;21376;50.954;4.716;2024-03-02T10:52:19;17.30;99.90
35240;DHT22;21376;50.954;4.716;2024-03-02T10:54:56;18.00;99.90
35240;DHT22;21376;50.954;4.716;2024-03-02T10:57:25;17.90;99.90
35240;DHT22;21376;50.954;4.716;2024-03-02T11:00:03;18.10;99.90
35240;DHT22;21376;50.954;4.716;2024-03-02T11:02:31;17.30;99.90
35240;DHT22;21376;50.954;4.716;2024-03-02T11:05:00;18.30;99.90
35240;DHT22;21376;50.954;4.716;2024-03-02T11:07:31;18.60;99.90
35240;DHT22;21376;50.954;4.716;2024-03-02T11:10:01;17.70;99.90
35240;DHT22;21376;50.954;4.716;2024-03-02T11:12:56;17.10;99.90
35240;DHT22;21376;50.954;4.716;2024-03-02T11:33:07;16.80;99.90
35240;DHT22;21376;50.954;4.716;2024-03-02T11:35:43;16.20;99.90
35240;DHT22;21376;50.954;4.716;2024-03-02T11:38:15;16.10;99.90
35240;DHT22;21376;50.954;4.716;2024-03-02T11:40:47;15.40;99.90
35240;DHT22;21376;50.954;4.716;2024-03-02T11:43:13;15.10;99.90
35240;DHT22;21376;50.954;4.716;2024-03-02T11:45:47;15.40;99.90
35240;DHT22;21376;50.954;4.716;2024-03-02T11:50:53;16.50;99.90
35240;DHT22;21376;50.954;4.716;2024-03-02T11:53:28;16.70;99.90
35240;DHT22;21376;50.954;4.716;2024-03-02T11:56:03;17.20;99.90
35240;DHT22;21376;50.954;4.716;2024-03-02T11:58:36;16.50;99.90
35240;DHT22;21376;50.954;4.716;2024-03-02T12:01:36;16.10;99.90
35240;DHT22;21376;50.954;4.716;2024-03-02T12:04:06;16.10;99.90
35240;DHT22;21376;50.954;4.716;2024-03-02T12:06:40;16.70;99.90
35240;DHT22;21376;50.954;4.716;2024-03-02T12:09:10;17.20;99.90
35240;DHT22;21376;50.954;4.716;2024-03-02T12:11:46;17.20;99.90
35240;DHT22;21376;50.954;4.716;2024-03-02T12:14:14;16.70;99.90
35240;DHT22;21376;50.954;4.716;2024-03-02T12:16:46;16.20;99.90
35240;DHT22;21376;50.954;4.716;2024-03-02T12:19:19;15.80;99.90
35240;DHT22;21376;50.954;4.716;2024-03-02T12:21:49;16.10;99.90
35240;DHT22;21376;50.954;4.716;2024-03-02T12:24:27;16.20;99.90
35240;DHT22;21376;50.954;4.716;2024-03-02T12:27:01;15.80;99.90
35240;DHT22;21376;50.954;4.716;2024-03-02T12:29:27;15.80;99.90
35240;DHT22;21376;50.954;4.716;2024-03-02T12:31:53;15.90;99.90
35240;DHT22;21376;50.954;4.716;2024-03-02T12:34:22;15.30;99.90
35240;DHT22;21376;50.954;4.716;2024-03-02T12:36:51;14.70;99.90
35240;DHT22;21376;50.954;4.716;2024-03-02T12:39:21;14.60;99.90
35240;DHT22;21376;50.954;4.716;2024-03-02T12:42:13;14.80;99.90
35240;DHT22;21376;50.954;4.716;2024-03-02T12:44:41;15.10;99.90
35240;DHT22;21376;50.954;4.716;2024-03-02T12:47:13;14.90;99.90
35240;DHT22;21376;50.954;4.716;2024-03-02T12:49:40;14.40;99.90
35240;DHT22;21376;50.954;4.716;2024-03-02T12:52:11;14.40;99.90
35240;DHT22;21376;50.954;4.716;2024-03-02T12:54:40;14.60;99.90
35240;DHT22;21376;50.954;4.716;2024-03-02T12:57:09;15.00;99.90
35240;DHT22;21376;50.954;4.716;2024-03-02T12:59:38;15.00;99.90
35240;DHT22;21376;50.954;4.716;2024-03-02T13:02:07;14.80;99.90
35240;DHT22;21376;50.954;4.716;2024-03-02T13:04:36;14.10;99.90
35240;DHT22;21376;50.954;4.716;2024-03-02T13:07:05;13.80;99.90
35240;DHT22;21376;50.954;4.716;2024-03-02T13:09:37;13.80;99.90
35240;DHT22;21376;50.954;4.716;2024-03-02T13:12:06;13.80;99.90
35240;DHT22;21376;50.954;4.716;2024-03-02T13:14:37;14.10;99.90
35240;DHT22;21376;50.954;4.716;2024-03-02T13:17:35;14.10;99.90
35240;DHT22;21376;50.954;4.716;2024-03-02T13:20:12;14.20;99.90
35240;DHT22;21376;50.954;4.716;2024-03-02T13:22:42;14.70;99.90
35240;DHT22;21376;50.954;4.716;2024-03-02T13:25:15;14.80;99.90
35240;DHT22;21376;50.954;4.716;2024-03-02T13:27:44;14.90;99.90
35240;DHT22;21376;50.954;4.716;2024-03-02T13:30:16;14.90;99.90
35240;DHT22;21376;50.954;4.716;2024-03-02T13:32:46;14.60;99.90
35240;DHT22;21376;50.954;4.716;2024-03-02T13:35:15;14.60;99.90
35240;DHT22;21376;50.954;4.716;2024-03-02T13:37:47;14.50;99.90
35240;DHT22;21376;50.954;4.716;2024-03-02T13:40:26;14.30;99.90
35240;DHT22;21376;50.954;4.716;2024-03-02T13:42:54;14.30;99.90
35240;DHT22;21376;50.954;4.716;2024-03-02T13:45:21;14.30;99.90
35240;DHT22;21376;50.954;4.716;2024-03-02T13:47:47;14.40;99.90
35240;DHT22;21376;50.954;4.716;2024-03-02T13:50:15;14.40;99.90
35240;DHT22;21376;50.954;4.716;2024-03-02T13:52:44;14.30;99.90
35240;DHT22;21376;50.954;4.716;2024-03-02T13:55:13;14.40;99.90
35240;DHT22;21376;50.954;4.716;2024-03-02T13:57:40;14.20;99.90
35240;DHT22;21376;50.954;4.716;2024-03-02T14:00:42;14.10;99.90
35240;DHT22;21376;50.954;4.716;2024-03-02T14:03:12;14.20;99.90
35240;DHT22;21376;50.954;4.716;2024-03-02T14:05:42;14.00;99.90
35240;DHT22;21376;50.954;4.716;2024-03-02T14:08:11;13.80;99.90
35240;DHT22;21376;50.954;4.716;2024-03-02T14:10:40;13.90;99.90
35240;DHT22;21376;50.954;4.716;2024-03-02T14:13:10;14.10;99.90
35240;DHT22;21376;50.954;4.716;2024-03-02T14:15:39;14.30;99.90
35240;DHT22;21376;50.954;4.716;2024-03-02T14:18:11;14.40;99.90
35240;DHT22;21376;50.954;4.716;2024-03-02T14:20:39;14.50;99.90
35240;DHT22;21376;50.954;4.716;2024-03-02T14:23:08;14.00;99.90
35240;DHT22;21376;50.954;4.716;2024-03-02T14:25:38;13.90;99.90
35240;DHT22;21376;50.954;4.716;2024-03-02T14:28:19;13.60;99.90
35240;DHT22;21376;50.954;4.716;2024-03-02T14:37:27;14.40;99.90
35240;DHT22;21376;50.954;4.716;2024-03-02T14:39:53;14.60;99.90
35240;DHT22;21376;50.954;4.716;2024-03-02T14:42:20;14.60;99.90
35240;DHT22;21376;50.954;4.716;2024-03-02T14:44:46;14.30;99.90
35240;DHT22;21376;50.954;4.716;2024-03-02T14:47:13;14.50;99.90
35240;DHT22;21376;50.954;4.716;2024-03-02T14:49:43;14.60;99.90
35240;DHT22;21376;50.954;4.716;2024-03-02T14:52:12;14.80;99.90
35240;DHT22;21376;50.954;4.716;2024-03-02T14:54:47;14.60;99.90
35240;DHT22;21376;50.954;4.716;2024-03-02T14:57:16;14.40;99.90
35240;DHT22;21376;50.954;4.716;2024-03-02T14:59:46;14.50;99.90
35240;DHT22;21376;50.954;4.716;2024-03-02T15:02:15;14.30;99.90
35240;DHT22;21376;50.954;4.716;2024-03-02T15:04:42;14.40;99.90
35240;DHT22;21376;50.954;4.716;2024-03-02T15:07:12;14.40;99.90
35240;DHT22;21376;50.954;4.716;2024-03-02T15:09:37;14.20;99.90
35240;DHT22;21376;50.954;4.716;2024-03-02T15:12:06;14.20;99.90
35240;DHT22;21376;50.954;4.716;2024-03-02T15:14:38;13.90;99.90
35240;DHT22;21376;50.954;4.716;2024-03-02T15:17:23;13.90;99.90
35240;DHT22;21376;50.954;4.716;2024-03-02T15:19:48;13.70;99.90
35240;DHT22;21376;50.954;4.716;2024-03-02T15:22:17;13.70;99.90
35240;DHT22;21376;50.954;4.716;2024-03-02T15:24:43;13.40;99.90
35240;DHT22;21376;50.954;4.716;2024-03-02T15:27:12;13.60;99.90
35240;DHT22;21376;50.954;4.716;2024-03-02T15:29:38;13.70;99.90
35240;DHT22;21376;50.954;4.716;2024-03-02T15:32:26;13.60;99.90
35240;DHT22;21376;50.954;4.716;2024-03-02T15:34:55;13.60;99.90
35240;DHT22;21376;50.954;4.716;2024-03-02T15:37:50;13.50;99.90
35240;DHT22;21376;50.954;4.716;2024-03-02T15:40:18;13.50;99.90
35240;DHT22;21376;50.954;4.716;2024-03-02T15:42:45;13.50;99.90
35240;DHT22;21376;50.954;4.716;2024-03-02T15:45:14;13.50;99.90
35240;DHT22;21376;50.954;4.716;2024-03-02T15:47:47;13.60;99.90
35240;DHT22;21376;50.954;4.716;2024-03-02T15:50:17;13.60;99.90
35240;DHT22;21376;50.954;4.716;2024-03-02T15:52:46;13.50;99.90
35240;DHT22;21376;50.954;4.716;2024-03-02T15:55:14;13.40;99.90
35240;DHT22;21376;50.954;4.716;2024-03-02T15:57:44;13.40;99.90
35240;DHT22;21376;50.954;4.716;2024-03-02T16:00:13;13.50;99.90
35240;DHT22;21376;50.954;4.716;2024-03-02T16:02:42;13.50;99.90
35240;DHT22;21376;50.954;4.716;2024-03-02T16:05:13;13.40;99.90
35240;DHT22;21376;50.954;4.716;2024-03-02T16:07:39;13.40;99.90
35240;DHT22;21376;50.954;4.716;2024-03-02T16:10:08;13.50;99.90
35240;DHT22;21376;50.954;4.716;2024-03-02T16:12:37;13.40;99.90
35240;DHT22;21376;50.954;4.716;2024-03-02T16:15:20;13.40;99.90
35240;DHT22;21376;50.954;4.716;2024-03-02T16:17:48;13.00;99.90
35240;DHT22;21376;50.954;4.716;2024-03-02T16:20:17;12.80;99.90
35240;DHT22;21376;50.954;4.716;2024-03-02T16:22:45;12.60;99.90
35240;DHT22;21376;50.954;4.716;2024-03-02T16:25:14;12.50;99.90
35240;DHT22;21376;50.954;4.716;2024-03-02T16:27:52;12.50;99.90
35240;DHT22;21376;50.954;4.716;2024-03-02T16:30:44;12.40;99.90
35240;DHT22;21376;50.954;4.716;2024-03-02T16:33:42;12.40;99.90
35240;DHT22;21376;50.954;4.716;2024-03-02T16:36:11;12.30;99.90
35240;DHT22;21376;50.954;4.716;2024-03-02T16:43:30;12.20;99.90
35240;DHT22;21376;50.954;4.716;2024-03-02T16:45:57;12.20;99.90
35240;DHT22;21376;50.954;4.716;2024-03-02T16:48:26;12.10;99.90
35240;DHT22;21376;50.954;4.716;2024-03-02T16:50:55;12.20;99.90
35240;DHT22;21376;50.954;4.716;2024-03-02T16:53:24;12.10;99.90
35240;DHT22;21376;50.954;4.716;2024-03-02T16:55:51;12.20;99.90
35240;DHT22;21376;50.954;4.716;2024-03-02T16:58:19;12.30;99.90
35240;DHT22;21376;50.954;4.716;2024-03-02T17:00:53;12.20;99.90
35240;DHT22;21376;50.954;4.716;2024-03-02T17:06:25;12.10;99.90
35240;DHT22;21376;50.954;4.716;2024-03-02T17:08:51;11.90;99.90
35240;DHT22;21376;50.954;4.716;2024-03-02T17:11:19;11.90;99.90
35240;DHT22;21376;50.954;4.716;2024-03-02T17:13:46;12.00;99.90
35240;DHT22;21376;50.954;4.716;2024-03-02T17:16:14;12.10;99.90
35240;DHT22;21376;50.954;4.716;2024-03-02T17:18:44;12.20;99.90
35240;DHT22;21376;50.954;4.716;2024-03-02T17:21:13;12.20;99.90
35240;DHT22;21376;50.954;4.716;2024-03-02T17:23:41;12.10;99.90
35240;DHT22;21376;50.954;4.716;2024-03-02T17:26:14;12.30;99.90
35240;DHT22;21376;50.954;4.716;2024-03-02T17:28:42;12.30;99.90
35240;DHT22;21376;50.954;4.716;2024-03-02T17:31:12;12.20;99.90
35240;DHT22;21376;50.954;4.716;2024-03-02T17:33:39;12.10;99.90
35240;DHT22;21376;50.954;4.716;2024-03-02T17:36:06;12.00;99.90
35240;DHT22;21376;50.954;4.716;2024-03-02T17:38:33;11.80;99.90
35240;DHT22;21376;50.954;4.716;2024-03-02T17:41:02;11.70;99.90
35240;DHT22;21376;50.954;4.716;2024-03-02T17:43:36;11.60;99.90
35240;DHT22;21376;50.954;4.716;2024-03-02T17:46:15;11.60;99.90
35240;DHT22;21376;50.954;4.716;2024-03-02T17:48:43;11.60;99.90
35240;DHT22;21376;50.954;4.716;2024-03-02T17:51:16;11.50;99.90
35240;DHT22;21376;50.954;4.716;2024-03-02T17:53:45;11.50;99.90
35240;DHT22;21376;50.954;4.716;2024-03-02T17:56:12;11.50;99.90
35240;DHT22;21376;50.954;4.716;2024-03-02T17:58:44;11.40;99.90
35240;DHT22;21376;50.954;4.716;2024-03-02T18:01:15;11.40;99.90
35240;DHT22;21376;50.954;4.716;2024-03-02T18:03:41;11.40;99.90
35240;DHT22;21376;50.954;4.716;2024-03-02T18:06:13;11.30;99.90
35240;DHT22;21376;50.954;4.716;2024-03-02T18:08:42;11.30;99.90
35240;DHT22;21376;50.954;4.716;2024-03-02T18:11:08;11.20;99.90
35240;DHT22;21376;50.954;4.716;2024-03-02T18:13:37;11.20;99.90
35240;DHT22;21376;50.954;4.716;2024-03-02T18:16:04;11.20;99.90
35240;DHT22;21376;50.954;4.716;2024-03-02T18:18:31;11.20;99.90
35240;DHT22;21376;50.954;4.716;2024-03-02T18:20:57;11.20;99.90
35240;DHT22;21376;50.954;4.716;2024-03-02T18:23:26;11.10;99.90
35240;DHT22;21376;50.954;4.716;2024-03-02T18:25:53;11.10;99.90
35240;DHT22;21376;50.954;4.716;2024-03-02T18:28:22;11.10;99.90
35240;DHT22;21376;50.954;4.716;2024-03-02T18:30:51;11.10;99.90
35240;DHT22;21376;50.954;4.716;2024-03-02T18:33:19;11.00;99.90
35240;DHT22;21376;50.954;4.716;2024-03-02T18:35:44;10.90;99.90
35240;DHT22;21376;50.954;4.716;2024-03-02T18:38:16;10.90;99.90
35240;DHT22;21376;50.954;4.716;2024-03-02T18:40:48;10.90;99.90
35240;DHT22;21376;50.954;4.716;2024-03-02T18:43:14;10.80;99.90
35240;DHT22;21376;50.954;4.716;2024-03-02T18:45:41;10.80;99.90
35240;DHT22;21376;50.954;4.716;2024-03-02T18:48:14;10.70;99.90
35240;DHT22;21376;50.954;4.716;2024-03-02T18:50:43;10.80;99.90
35240;DHT22;21376;50.954;4.716;2024-03-02T18:53:12;10.80;99.90
35240;DHT22;21376;50.954;4.716;2024-03-02T18:55:39;10.80;99.90
35240;DHT22;21376;50.954;4.716;2024-03-02T18:58:07;11.00;99.90
35240;DHT22;21376;50.954;4.716;2024-03-02T19:00:36;11.00;99.90
35240;DHT22;21376;50.954;4.716;2024-03-02T19:03:05;11.00;99.90
35240;DHT22;21376;50.954;4.716;2024-03-02T19:05:37;11.00;99.90
35240;DHT22;21376;50.954;4.716;2024-03-02T19:08:05;11.10;99.90
35240;DHT22;21376;50.954;4.716;2024-03-02T19:10:34;11.20;99.90
35240;DHT22;21376;50.954;4.716;2024-03-02T19:13:06;11.20;99.90
35240;DHT22;21376;50.954;4.716;2024-03-02T19:15:34;11.20;99.90
35240;DHT22;21376;50.954;4.716;2024-03-02T19:18:01;11.10;99.90
35240;DHT22;21376;50.954;4.716;2024-03-02T19:20:30;11.10;99.90
35240;DHT22;21376;50.954;4.716;2024-03-02T19:34:59;11.00;99.90
35240;DHT22;21376;50.954;4.716;2024-03-02T19:37:27;11.10;99.90
35240;DHT22;21376;50.954;4.716;2024-03-02T19:39:54;11.10;99.90
35240;DHT22;21376;50.954;4.716;2024-03-02T19:42:22;11.10;99.90